createdAt,value
2022-12-29T00:01:40.079Z,100.00
2022-12-29T00:04:11.385Z,100.00
2022-12-29T00:06:41.075Z,100.00
2022-12-29T00:09:07.573Z,100.00
2022-12-29T00:11:34.191Z,100.00
2022-12-29T00:14:25.718Z,100.00
2022-12-29T00:16:52.995Z,100.00
2022-12-29T00:19:38.087Z,100.00
2022-12-29T00:22:23.759Z,100.00
2022-12-29T00:25:08.551Z,100.00
2022-12-29T00:27:53.901Z,100.00
2022-12-29T00:30:42.858Z,100.00
2022-12-29T00:33:29.020Z,100.00
2022-12-29T00:35:58.951Z,100.00
2022-12-29T00:38:44.200Z,100.00
2022-12-29T00:41:29.501Z,100.00
2022-12-29T00:44:07.374Z,100.00
2022-12-29T00:46:35.139Z,100.00
2022-12-29T00:49:20.928Z,100.00
2022-12-29T00:51:47.776Z,100.00
2022-12-29T00:54:14.355Z,100.00
2022-12-29T00:56:40.993Z,100.00
2022-12-29T00:59:08.868Z,100.00
2022-12-29T01:01:36.451Z,100.00
2022-12-29T01:04:04.688Z,100.00
2022-12-29T01:06:31.570Z,100.00
2022-12-29T01:09:16.602Z,100.00
2022-12-29T01:11:43.066Z,100.00
2022-12-29T01:14:09.588Z,100.00
2022-12-29T01:16:37.507Z,100.00
2022-12-29T01:19:04.789Z,100.00
2022-12-29T01:21:31.408Z,100.00
2022-12-29T01:23:57.876Z,100.00
2022-12-29T01:26:24.406Z,100.00
2022-12-29T01:28:52.505Z,100.00
2022-12-29T01:31:19.051Z,100.00
2022-12-29T01:33:45.645Z,100.00
2022-12-29T01:36:13.743Z,100.00
2022-12-29T01:38:41.663Z,100.00
2022-12-29T01:41:09.217Z,100.00
2022-12-29T01:43:41.940Z,100.00
2022-12-29T01:46:17.849Z,100.00
2022-12-29T01:48:48.344Z,100.00
2022-12-29T01:51:15.624Z,100.00
2022-12-29T01:53:42.992Z,100.00
2022-12-29T01:56:13.256Z,100.00
2022-12-29T01:58:42.682Z,100.00
2022-12-29T02:01:09.482Z,100.00
2022-12-29T02:03:36.651Z,100.00
2022-12-29T02:06:23.513Z,100.00
2022-12-29T02:08:51.185Z,100.00
2022-12-29T02:11:18.252Z,100.00
2022-12-29T02:13:44.820Z,100.00
2022-12-29T02:16:11.343Z,100.00
2022-12-29T02:18:41.711Z,100.00
2022-12-29T02:21:34.640Z,100.00
2022-12-29T02:24:19.939Z,100.00
2022-12-29T02:27:05.474Z,100.00
2022-12-29T02:29:31.946Z,100.00
2022-12-29T02:32:00.519Z,100.00
2022-12-29T02:34:36.195Z,100.00
2022-12-29T02:37:10.480Z,100.00
2022-12-29T02:39:53.381Z,100.00
2022-12-29T02:42:31.973Z,100.00
2022-12-29T02:45:04.212Z,100.00
2022-12-29T02:47:39.263Z,100.00
2022-12-29T02:50:10.084Z,100.00
2022-12-29T02:53:00.036Z,100.00
2022-12-29T02:55:27.019Z,100.00
2022-12-29T02:58:12.389Z,100.00
2022-12-29T03:00:43.384Z,100.00
2022-12-29T03:03:14.929Z,100.00
2022-12-29T03:05:54.286Z,100.00
2022-12-29T03:08:40.220Z,100.00
2022-12-29T03:11:28.902Z,100.00
2022-12-29T03:14:18.804Z,100.00
2022-12-29T03:16:47.023Z,100.00
2022-12-29T03:19:13.551Z,100.00
2022-12-29T03:22:02.789Z,100.00
2022-12-29T03:24:35.529Z,100.00
2022-12-29T03:27:04.267Z,100.00
2022-12-29T03:29:41.569Z,100.00
2022-12-29T03:32:09.903Z,100.00
2022-12-29T03:34:39.270Z,100.00
2022-12-29T03:37:16.650Z,100.00
2022-12-29T03:39:45.332Z,100.00
2022-12-29T03:42:14.706Z,100.00
2022-12-29T03:44:42.796Z,100.00
2022-12-29T03:47:14.385Z,100.00
2022-12-29T03:49:41.798Z,100.00
2022-12-29T03:52:09.185Z,100.00
2022-12-29T03:54:41.962Z,100.00
2022-12-29T03:57:09.173Z,100.00
2022-12-29T03:59:46.540Z,100.00
2022-12-29T04:02:13.266Z,100.00
2022-12-29T04:04:41.401Z,100.00
2022-12-29T04:07:07.954Z,100.00
2022-12-29T04:09:34.561Z,100.00
2022-12-29T04:12:01.517Z,100.00
2022-12-29T04:14:28.358Z,100.00
2022-12-29T04:16:56.138Z,100.00
2022-12-29T04:19:23.489Z,100.00
2022-12-29T04:21:50.407Z,100.00
2022-12-29T04:24:17.600Z,100.00
2022-12-29T04:26:45.481Z,100.00
2022-12-29T04:29:29.459Z,100.00
2022-12-29T04:32:06.091Z,100.00
2022-12-29T04:34:35.438Z,100.00
2022-12-29T04:37:01.994Z,100.00
2022-12-29T04:39:29.026Z,100.00
2022-12-29T04:41:55.896Z,100.00
2022-12-29T04:44:22.454Z,100.00
2022-12-29T04:47:06.200Z,100.00
2022-12-29T04:50:05.530Z,100.00
2022-12-29T04:52:44.662Z,100.00
2022-12-29T04:55:13.588Z,100.00
2022-12-29T04:57:41.256Z,100.00
2022-12-29T05:00:10.223Z,100.00
2022-12-29T05:02:38.571Z,100.00
2022-12-29T05:05:06.073Z,100.00
2022-12-29T05:07:35.469Z,100.00
2022-12-29T05:10:01.924Z,100.00
2022-12-29T05:12:32.852Z,100.00
2022-12-29T05:15:00.631Z,100.00
2022-12-29T05:17:27.279Z,100.00
2022-12-29T05:19:53.892Z,100.00
2022-12-29T05:22:20.727Z,100.00
2022-12-29T05:24:47.474Z,100.00
2022-12-29T05:27:14.208Z,100.00
2022-12-29T05:29:59.663Z,100.00
2022-12-29T05:32:26.212Z,100.00
2022-12-29T05:34:53.722Z,100.00
2022-12-29T05:37:20.564Z,100.00
2022-12-29T05:39:47.199Z,100.00
2022-12-29T05:42:14.411Z,100.00
2022-12-29T05:45:09.275Z,100.00
2022-12-29T05:47:53.387Z,100.00
2022-12-29T05:50:38.286Z,100.00
2022-12-29T05:53:14.881Z,100.00
2022-12-29T05:55:47.035Z,100.00
2022-12-29T05:58:16.851Z,100.00
2022-12-29T06:00:44.049Z,100.00
2022-12-29T06:03:13.020Z,100.00
2022-12-29T06:05:39.751Z,100.00
2022-12-29T06:08:06.556Z,100.00
2022-12-29T06:10:34.468Z,100.00
2022-12-29T06:13:06.510Z,100.00
2022-12-29T06:15:36.820Z,100.00
2022-12-29T06:18:06.016Z,100.00
2022-12-29T06:20:32.598Z,100.00
2022-12-29T06:22:59.191Z,100.00
2022-12-29T06:25:25.866Z,100.00
2022-12-29T06:27:52.497Z,100.00
2022-12-29T06:30:19.029Z,100.00
2022-12-29T06:32:45.639Z,100.00
2022-12-29T06:35:13.034Z,100.00
2022-12-29T06:37:44.862Z,100.00
2022-12-29T06:40:12.729Z,100.00
2022-12-29T06:43:08.521Z,100.00
2022-12-29T06:45:53.630Z,100.00
2022-12-29T06:48:20.147Z,100.00
2022-12-29T06:50:46.683Z,100.00
2022-12-29T06:53:13.177Z,100.00
2022-12-29T06:55:40.431Z,100.00
2022-12-29T06:58:07.140Z,100.00
2022-12-29T07:00:33.936Z,100.00
2022-12-29T07:03:00.691Z,100.00
2022-12-29T07:05:28.698Z,100.00
2022-12-29T07:07:55.924Z,100.00
2022-12-29T07:10:22.803Z,100.00
2022-12-29T07:12:49.319Z,100.00
2022-12-29T07:15:15.812Z,100.00
2022-12-29T07:17:42.984Z,100.00
2022-12-29T07:20:10.037Z,100.00
2022-12-29T07:22:36.826Z,100.00
2022-12-29T07:25:04.296Z,100.00
2022-12-29T07:27:30.775Z,100.00
2022-12-29T07:29:57.294Z,100.00
2022-12-29T07:32:23.746Z,100.00
2022-12-29T07:34:50.284Z,100.00
2022-12-29T07:37:16.855Z,100.00
2022-12-29T07:39:44.054Z,100.00
2022-12-29T07:42:10.589Z,100.00
2022-12-29T07:44:41.874Z,100.00
2022-12-29T07:47:33.294Z,100.00
2022-12-29T07:50:00.416Z,100.00
2022-12-29T07:52:27.011Z,100.00
2022-12-29T07:54:53.473Z,100.00
2022-12-29T07:57:19.977Z,100.00
2022-12-29T07:59:46.540Z,100.00
2022-12-29T08:02:13.162Z,100.00
2022-12-29T08:04:39.822Z,100.00
2022-12-29T08:07:06.362Z,100.00
2022-12-29T08:09:32.950Z,100.00
2022-12-29T08:11:59.450Z,100.00
2022-12-29T08:14:25.918Z,100.00
2022-12-29T08:16:52.434Z,100.00
2022-12-29T08:19:18.964Z,100.00
2022-12-29T08:21:45.486Z,100.00
2022-12-29T08:24:11.927Z,100.00
2022-12-29T08:26:39.294Z,100.00
2022-12-29T08:29:05.763Z,100.00
2022-12-29T08:31:32.334Z,100.00
2022-12-29T08:33:58.859Z,100.00
2022-12-29T08:36:25.344Z,100.00
2022-12-29T08:38:51.805Z,100.00
2022-12-29T08:41:18.392Z,100.00
2022-12-29T08:43:48.647Z,100.00
2022-12-29T08:46:15.293Z,100.00
2022-12-29T08:48:41.794Z,100.00
2022-12-29T08:51:08.854Z,100.00
2022-12-29T08:53:35.725Z,100.00
2022-12-29T08:56:27.551Z,100.00
2022-12-29T08:58:56.536Z,100.00
2022-12-29T09:01:24.546Z,100.00
2022-12-29T09:06:40.416Z,100.00
2022-12-29T09:09:07.252Z,100.00
2022-12-29T09:11:33.821Z,100.00
2022-12-29T09:14:00.922Z,100.00
2022-12-29T09:16:28.012Z,100.00
2022-12-29T09:18:54.633Z,100.00
2022-12-29T09:21:21.236Z,100.00
2022-12-29T09:23:49.091Z,100.00
2022-12-29T09:26:15.583Z,100.00
2022-12-29T09:28:42.493Z,100.00
2022-12-29T09:31:09.041Z,100.00
2022-12-29T09:33:35.649Z,100.00
2022-12-29T09:36:02.347Z,100.00
2022-12-29T09:38:29.211Z,100.00
2022-12-29T09:40:59.857Z,100.00
2022-12-29T09:43:43.143Z,100.00
2022-12-29T09:46:24.736Z,100.00
2022-12-29T09:48:56.354Z,100.00
2022-12-29T09:51:24.881Z,100.00
2022-12-29T09:53:55.132Z,100.00
2022-12-29T09:56:23.027Z,100.00
2022-12-29T09:59:14.338Z,100.00
2022-12-29T10:01:53.434Z,100.00
2022-12-29T10:04:20.216Z,100.00
2022-12-29T10:07:27.861Z,99.11
2022-12-29T10:10:02.346Z,97.74
2022-12-29T10:12:40.759Z,97.49
2022-12-29T10:15:07.607Z,96.53
2022-12-29T10:17:37.218Z,95.61
2022-12-29T10:20:18.443Z,95.46
2022-12-29T10:22:57.055Z,95.32
2022-12-29T10:25:28.450Z,95.61
2022-12-29T10:27:59.423Z,95.10
2022-12-29T10:30:26.205Z,94.91
2022-12-29T10:32:59.408Z,94.26
2022-12-29T10:35:30.573Z,94.29
2022-12-29T10:38:06.047Z,93.29
2022-12-29T10:40:50.580Z,92.69
2022-12-29T10:43:23.211Z,94.83
2022-12-29T10:45:50.147Z,96.89
2022-12-29T10:48:23.099Z,98.21
2022-12-29T10:50:54.761Z,100.00
2022-12-29T10:53:27.708Z,100.00
2022-12-29T10:55:54.602Z,100.00
2022-12-29T10:58:21.900Z,100.00
2022-12-29T11:00:53.286Z,100.00
2022-12-29T11:03:22.564Z,100.00
2022-12-29T11:06:07.756Z,99.32
2022-12-29T11:08:39.307Z,99.04
2022-12-29T11:11:09.381Z,98.10
2022-12-29T11:13:47.499Z,96.90
2022-12-29T11:16:14.097Z,96.69
2022-12-29T11:18:41.041Z,95.84
2022-12-29T11:21:24.270Z,96.21
2022-12-29T11:23:58.672Z,96.42
2022-12-29T11:26:31.741Z,97.79
2022-12-29T11:29:09.699Z,100.00
2022-12-29T11:31:49.793Z,97.95
2022-12-29T11:34:26.088Z,97.87
2022-12-29T11:36:55.259Z,98.09
2022-12-29T11:39:27.545Z,98.16
2022-12-29T11:41:54.698Z,98.81
2022-12-29T11:44:21.360Z,97.14
2022-12-29T11:46:51.393Z,96.04
2022-12-29T11:49:23.201Z,96.62
2022-12-29T11:51:52.150Z,96.49
2022-12-29T11:54:27.681Z,97.89
2022-12-29T11:56:58.616Z,100.00
2022-12-29T11:59:25.917Z,100.00
2022-12-29T12:01:52.764Z,99.22
2022-12-29T12:04:22.552Z,98.83
2022-12-29T12:06:55.225Z,97.04
2022-12-29T12:09:28.420Z,97.63
2022-12-29T12:11:55.738Z,95.71
2022-12-29T12:14:48.760Z,96.18
2022-12-29T12:17:39.556Z,97.02
2022-12-29T12:20:26.210Z,96.84
2022-12-29T12:22:53.464Z,99.46
2022-12-29T12:25:25.539Z,98.48
2022-12-29T12:27:54.450Z,99.64
2022-12-29T12:30:22.061Z,98.66
2022-12-29T12:33:01.750Z,100.00
2022-12-29T12:35:47.197Z,99.76
2022-12-29T12:38:22.644Z,99.58
2022-12-29T12:41:06.772Z,99.79
2022-12-29T12:43:45.256Z,97.92
2022-12-29T12:46:14.828Z,96.94
2022-12-29T12:49:00.342Z,96.62
2022-12-29T12:51:41.816Z,96.89
2022-12-29T12:54:27.197Z,97.79
2022-12-29T12:56:53.604Z,99.15
2022-12-29T12:59:23.163Z,99.72
2022-12-29T13:01:59.920Z,100.00
2022-12-29T13:04:48.295Z,100.00
2022-12-29T13:07:17.688Z,100.00
2022-12-29T13:10:04.212Z,100.00
2022-12-29T13:12:41.998Z,100.00
2022-12-29T13:15:11.592Z,100.00
2022-12-29T13:17:44.144Z,100.00
2022-12-29T13:20:12.911Z,100.00
2022-12-29T13:22:54.420Z,100.00
2022-12-29T13:25:28.449Z,100.00
2022-12-29T13:28:13.686Z,100.00
2022-12-29T13:30:40.246Z,100.00
2022-12-29T13:33:22.542Z,100.00
2022-12-29T13:36:02.537Z,100.00
2022-12-29T13:38:35.025Z,99.76
2022-12-29T13:41:05.556Z,100.00
2022-12-29T13:43:33.664Z,98.66
2022-12-29T13:46:03.469Z,97.59
2022-12-29T13:48:35.646Z,98.16
2022-12-29T13:51:03.204Z,98.37
2022-12-29T13:53:43.567Z,98.74
2022-12-29T13:56:21.642Z,99.06
2022-12-29T13:58:51.150Z,99.24
2022-12-29T14:01:30.125Z,99.93
2022-12-29T14:03:58.028Z,100.00
2022-12-29T14:06:25.346Z,100.00
2022-12-29T14:08:56.265Z,100.00
2022-12-29T14:11:25.719Z,100.00
2022-12-29T14:13:52.556Z,100.00
2022-12-29T14:16:30.385Z,100.00
2022-12-29T14:19:04.539Z,100.00
2022-12-29T14:21:31.421Z,100.00
2022-12-29T14:24:16.672Z,100.00
2022-12-29T14:26:43.226Z,100.00
2022-12-29T14:29:36.189Z,100.00
2022-12-29T14:32:02.696Z,100.00
2022-12-29T14:34:30.446Z,100.00
2022-12-29T14:37:01.529Z,100.00
2022-12-29T14:39:34.005Z,100.00
2022-12-29T14:42:09.693Z,100.00
2022-12-29T14:44:48.426Z,100.00
2022-12-29T14:47:33.691Z,100.00
2022-12-29T14:50:08.109Z,100.00
2022-12-29T14:52:43.936Z,100.00
2022-12-29T14:55:16.233Z,100.00
2022-12-29T14:57:44.858Z,100.00
2022-12-29T15:00:14.360Z,100.00
2022-12-29T15:02:42.301Z,100.00
2022-12-29T15:05:24.084Z,100.00
2022-12-29T15:07:50.819Z,100.00
2022-12-29T15:10:18.726Z,100.00
2022-12-29T15:12:49.984Z,100.00
2022-12-29T15:15:27.416Z,100.00
2022-12-29T15:17:54.731Z,100.00
2022-12-29T15:20:24.050Z,100.00
2022-12-29T15:22:53.979Z,100.00
2022-12-29T15:25:20.479Z,100.00
2022-12-29T15:27:59.416Z,100.00
2022-12-29T15:30:26.032Z,100.00
2022-12-29T15:32:55.349Z,100.00
2022-12-29T15:35:28.315Z,100.00
2022-12-29T15:37:55.058Z,100.00
2022-12-29T15:40:25.145Z,100.00
2022-12-29T15:43:30.415Z,100.00
2022-12-29T15:45:57.084Z,100.00
2022-12-29T15:48:25.391Z,100.00
2022-12-29T15:50:52.691Z,100.00
2022-12-29T15:53:25.666Z,100.00
2022-12-29T15:55:54.967Z,100.00
2022-12-29T15:58:26.765Z,100.00
2022-12-29T16:00:54.850Z,100.00
2022-12-29T16:03:23.489Z,100.00
2022-12-29T16:05:51.332Z,100.00
2022-12-29T16:08:22.617Z,100.00
2022-12-29T16:10:50.039Z,100.00
2022-12-29T16:13:22.495Z,100.00
2022-12-29T16:15:49.442Z,100.00
2022-12-29T16:18:27.403Z,100.00
2022-12-29T16:20:55.379Z,100.00
2022-12-29T16:23:31.382Z,100.00
2022-12-29T16:25:58.955Z,100.00
2022-12-29T16:28:42.857Z,100.00
2022-12-29T16:31:18.732Z,100.00
2022-12-29T16:33:48.467Z,100.00
2022-12-29T16:36:35.403Z,100.00
2022-12-29T16:39:22.784Z,100.00
2022-12-29T16:41:50.504Z,100.00
2022-12-29T16:44:20.456Z,100.00
2022-12-29T16:47:16.148Z,100.00
2022-12-29T16:49:46.659Z,100.00
2022-12-29T16:52:24.884Z,100.00
2022-12-29T16:54:53.952Z,100.00
2022-12-29T16:57:25.963Z,100.00
2022-12-29T16:59:54.240Z,100.00
2022-12-29T17:02:22.359Z,100.00
2022-12-29T17:04:50.771Z,100.00
2022-12-29T17:07:24.878Z,100.00
2022-12-29T17:09:51.799Z,100.00
2022-12-29T17:12:20.556Z,100.00
2022-12-29T17:14:48.593Z,100.00
2022-12-29T17:17:20.758Z,100.00
2022-12-29T17:19:54.753Z,100.00
2022-12-29T17:22:28.478Z,100.00
2022-12-29T17:24:55.981Z,100.00
2022-12-29T17:27:24.669Z,100.00
2022-12-29T17:29:51.935Z,100.00
2022-12-29T17:32:18.595Z,100.00
2022-12-29T17:34:45.029Z,100.00
2022-12-29T17:37:23.740Z,100.00
2022-12-29T17:39:50.277Z,100.00
2022-12-29T17:42:18.092Z,100.00
2022-12-29T17:44:44.685Z,100.00
2022-12-29T17:47:11.627Z,100.00
2022-12-29T17:49:38.204Z,100.00
2022-12-29T17:52:05.544Z,100.00
2022-12-29T17:54:32.179Z,100.00
2022-12-29T17:56:58.797Z,100.00
2022-12-29T17:59:25.505Z,100.00
2022-12-29T18:01:52.093Z,100.00
2022-12-29T18:04:20.018Z,100.00
2022-12-29T18:06:46.739Z,100.00
2022-12-29T18:09:13.533Z,100.00
2022-12-29T18:11:41.443Z,100.00
2022-12-29T18:14:15.276Z,100.00
2022-12-29T18:16:41.936Z,100.00
2022-12-29T18:19:09.396Z,100.00
2022-12-29T18:21:36.705Z,100.00
2022-12-29T18:24:03.213Z,100.00
2022-12-29T18:26:31.901Z,100.00
2022-12-29T18:28:59.534Z,100.00
2022-12-29T18:31:27.624Z,100.00
2022-12-29T18:33:55.083Z,100.00
2022-12-29T18:36:21.967Z,100.00
2022-12-29T18:38:48.535Z,100.00
2022-12-29T18:41:19.537Z,100.00
2022-12-29T18:43:46.402Z,100.00
2022-12-29T18:46:18.774Z,100.00
2022-12-29T18:48:50.199Z,100.00
2022-12-29T18:51:17.977Z,100.00
2022-12-29T18:53:44.819Z,100.00
2022-12-29T18:56:11.449Z,100.00
2022-12-29T18:58:38.152Z,100.00
2022-12-29T19:01:05.579Z,100.00
2022-12-29T19:03:32.687Z,100.00
2022-12-29T19:06:00.175Z,100.00
2022-12-29T19:08:26.834Z,100.00
2022-12-29T19:10:53.292Z,100.00
2022-12-29T19:13:21.045Z,100.00
2022-12-29T19:15:47.875Z,100.00
2022-12-29T19:21:08.642Z,100.00
2022-12-29T19:23:35.233Z,100.00
2022-12-29T19:26:01.735Z,100.00
2022-12-29T19:28:29.010Z,100.00
2022-12-29T19:30:58.291Z,100.00
2022-12-29T19:33:25.214Z,100.00
2022-12-29T19:35:51.850Z,100.00
2022-12-29T19:38:19.353Z,100.00
2022-12-29T19:40:47.622Z,100.00
2022-12-29T19:43:14.602Z,100.00
2022-12-29T19:45:42.020Z,100.00
2022-12-29T19:48:12.137Z,100.00
2022-12-29T19:50:38.617Z,100.00
2022-12-29T19:53:05.790Z,100.00
2022-12-29T19:55:32.578Z,100.00
2022-12-29T19:57:59.152Z,100.00
2022-12-29T20:00:25.704Z,100.00
2022-12-29T20:02:52.379Z,100.00
2022-12-29T20:05:19.552Z,100.00
2022-12-29T20:07:46.297Z,100.00
2022-12-29T20:10:12.806Z,100.00
2022-12-29T20:12:39.372Z,100.00
2022-12-29T20:15:06.892Z,100.00
2022-12-29T20:18:11.059Z,100.00
2022-12-29T20:20:19.996Z,100.00
2022-12-29T20:22:46.461Z,100.00
2022-12-29T20:25:43.749Z,100.00
2022-12-29T20:27:59.907Z,100.00
2022-12-29T20:30:26.375Z,100.00
2022-12-29T20:32:52.893Z,100.00
2022-12-29T20:35:19.465Z,100.00
2022-12-29T20:37:46.043Z,100.00
2022-12-29T20:40:13.043Z,100.00
2022-12-29T20:42:39.493Z,100.00
2022-12-29T20:45:06.108Z,100.00
2022-12-29T20:47:32.620Z,100.00
2022-12-29T20:49:59.254Z,100.00
2022-12-29T20:52:25.822Z,100.00
2022-12-29T20:54:55.192Z,100.00
2022-12-29T20:57:21.641Z,100.00
2022-12-29T20:59:48.216Z,100.00
2022-12-29T21:02:18.763Z,100.00
2022-12-29T21:05:21.979Z,100.00
2022-12-29T21:07:31.747Z,100.00
2022-12-29T21:09:58.189Z,100.00
2022-12-29T21:12:24.785Z,100.00
2022-12-29T21:14:51.352Z,100.00
2022-12-29T21:17:18.452Z,100.00
2022-12-29T21:19:45.006Z,100.00
2022-12-29T21:22:11.552Z,100.00
2022-12-29T21:24:38.601Z,100.00
2022-12-29T21:27:05.964Z,100.00
2022-12-29T21:29:32.459Z,100.00
2022-12-29T21:32:06.244Z,100.00
2022-12-29T21:34:34.424Z,100.00
2022-12-29T21:37:01.082Z,100.00
2022-12-29T21:39:27.715Z,100.00
2022-12-29T21:42:00.072Z,100.00
2022-12-29T21:44:46.139Z,100.00
2022-12-29T21:47:12.813Z,100.00
2022-12-29T21:49:39.453Z,100.00
2022-12-29T21:52:05.948Z,100.00
2022-12-29T21:54:51.080Z,100.00
2022-12-29T21:57:37.218Z,100.00
2022-12-29T22:00:23.755Z,100.00
2022-12-29T22:03:12.906Z,100.00
2022-12-29T22:06:03.733Z,100.00
2022-12-29T22:08:49.114Z,100.00
2022-12-29T22:11:34.263Z,100.00
2022-12-29T22:14:01.624Z,100.00
2022-12-29T22:16:28.427Z,100.00
2022-12-29T22:18:55.236Z,100.00
2022-12-29T22:21:21.835Z,100.00
2022-12-29T22:23:48.341Z,100.00
2022-12-29T22:26:15.453Z,100.00
2022-12-29T22:28:43.179Z,100.00
2022-12-29T22:31:27.247Z,100.00
2022-12-29T22:33:55.221Z,100.00
2022-12-29T22:36:21.926Z,100.00
2022-12-29T22:38:49.125Z,100.00
2022-12-29T22:41:15.931Z,100.00
2022-12-29T22:43:42.449Z,100.00
2022-12-29T22:46:09.275Z,100.00
2022-12-29T22:48:36.282Z,100.00
2022-12-29T22:51:03.223Z,100.00
2022-12-29T22:53:29.972Z,100.00
2022-12-29T22:56:07.292Z,100.00
2022-12-29T22:58:34.207Z,100.00
2022-12-29T23:01:01.079Z,100.00
2022-12-29T23:03:28.131Z,100.00
2022-12-29T23:05:58.618Z,100.00
2022-12-29T23:08:25.618Z,100.00
2022-12-29T23:10:52.358Z,100.00
2022-12-29T23:13:18.833Z,100.00
2022-12-29T23:15:46.351Z,100.00
2022-12-29T23:18:12.870Z,100.00
2022-12-29T23:20:39.714Z,100.00
2022-12-29T23:23:06.219Z,100.00
2022-12-29T23:25:34.883Z,100.00
2022-12-29T23:28:01.430Z,100.00
2022-12-29T23:30:27.887Z,100.00
2022-12-29T23:32:54.450Z,100.00
2022-12-29T23:35:20.945Z,100.00
2022-12-29T23:37:47.510Z,100.00
2022-12-29T23:40:14.046Z,100.00
2022-12-29T23:42:40.869Z,100.00
2022-12-29T23:45:07.560Z,100.00
2022-12-29T23:47:34.081Z,100.00
2022-12-29T23:50:00.605Z,100.00
2022-12-29T23:52:27.069Z,100.00
2022-12-29T23:54:53.542Z,100.00
2022-12-29T23:57:20.118Z,100.00
2022-12-29T23:59:46.570Z,100.00
